sensor_id;sensor_type;location;lat;lon;timestamp;pressure;altitude;pressure_sealevel;temperature;humidity
4598;BME280;62772;48.646;8.906;2022-12-07T00:00:03;96284.16;;;1.35;100.00
4598;BME280;62772;48.646;8.906;2022-12-07T00:05:06;96284.88;;;0.98;100.00
4598;BME280;62772;48.646;8.906;2022-12-07T00:10:09;96290.56;;;0.90;100.00
4598;BME280;62772;48.646;8.906;2022-12-07T00:15:10;96289.31;;;0.93;100.00
4598;BME280;62772;48.646;8.906;2022-12-07T00:20:11;96288.88;;;1.06;100.00
4598;BME280;62772;48.646;8.906;2022-12-07T00:25:14;96290.59;;;1.22;100.00
4598;BME280;62772;48.646;8.906;2022-12-07T00:30:15;96279.34;;;1.00;100.00
4598;BME280;62772;48.646;8.906;2022-12-07T00:35:16;96276.38;;;1.18;100.00
4598;BME280;62772;48.646;8.906;2022-12-07T00:40:19;96272.25;;;1.27;100.00
4598;BME280;62772;48.646;8.906;2022-12-07T00:45:20;96273.44;;;1.47;100.00
4598;BME280;62772;48.646;8.906;2022-12-07T00:50:21;96276.75;;;1.32;100.00
4598;BME280;62772;48.646;8.906;2022-12-07T00:55:24;96266.31;;;1.48;100.00
4598;BME280;62772;48.646;8.906;2022-12-07T01:00:25;96265.19;;;1.76;100.00
4598;BME280;62772;48.646;8.906;2022-12-07T01:05:26;96274.44;;;1.41;100.00
4598;BME280;62772;48.646;8.906;2022-12-07T01:10:29;96272.41;;;1.16;100.00
4598;BME280;62772;48.646;8.906;2022-12-07T01:15:31;96275.31;;;1.19;100.00
4598;BME280;62772;48.646;8.906;2022-12-07T01:20:31;96276.25;;;1.35;100.00
4598;BME280;62772;48.646;8.906;2022-12-07T01:25:35;96284.50;;;1.49;100.00
4598;BME280;62772;48.646;8.906;2022-12-07T01:30:35;96280.06;;;1.22;100.00
4598;BME280;62772;48.646;8.906;2022-12-07T01:35:36;96287.19;;;1.22;100.00
4598;BME280;62772;48.646;8.906;2022-12-07T01:40:39;96294.84;;;0.96;100.00
4598;BME280;62772;48.646;8.906;2022-12-07T01:45:41;96296.25;;;1.04;100.00
4598;BME280;62772;48.646;8.906;2022-12-07T01:50:43;96297.06;;;1.09;100.00
4598;BME280;62772;48.646;8.906;2022-12-07T01:55:49;96302.97;;;0.67;100.00
4598;BME280;62772;48.646;8.906;2022-12-07T02:00:52;96294.88;;;0.74;100.00
4598;BME280;62772;48.646;8.906;2022-12-07T02:05:53;96286.91;;;0.91;100.00
4598;BME280;62772;48.646;8.906;2022-12-07T02:10:57;96296.47;;;1.30;100.00
4598;BME280;62772;48.646;8.906;2022-12-07T02:16:08;96301.56;;;1.14;100.00
4598;BME280;62772;48.646;8.906;2022-12-07T02:21:18;96304.78;;;1.16;100.00
4598;BME280;62772;48.646;8.906;2022-12-07T02:27:00;96299.13;;;1.35;100.00
4598;BME280;62772;48.646;8.906;2022-12-07T02:32:13;96289.28;;;1.57;100.00
4598;BME280;62772;48.646;8.906;2022-12-07T02:37:28;96291.34;;;1.50;100.00
4598;BME280;62772;48.646;8.906;2022-12-07T02:42:38;96288.69;;;1.45;100.00
4598;BME280;62772;48.646;8.906;2022-12-07T02:47:43;96290.78;;;1.11;100.00
4598;BME280;62772;48.646;8.906;2022-12-07T02:52:44;96284.94;;;1.36;100.00
4598;BME280;62772;48.646;8.906;2022-12-07T02:58:01;96277.53;;;1.33;100.00
4598;BME280;62772;48.646;8.906;2022-12-07T03:03:10;96284.03;;;0.93;100.00
4598;BME280;62772;48.646;8.906;2022-12-07T03:08:14;96272.34;;;1.11;100.00
4598;BME280;62772;48.646;8.906;2022-12-07T03:13:24;96260.56;;;1.13;100.00
4598;BME280;62772;48.646;8.906;2022-12-07T03:18:31;96258.22;;;1.17;100.00
4598;BME280;62772;48.646;8.906;2022-12-07T03:23:35;96260.41;;;1.68;100.00
4598;BME280;62772;48.646;8.906;2022-12-07T03:28:41;96269.56;;;1.60;100.00
4598;BME280;62772;48.646;8.906;2022-12-07T03:33:50;96256.06;;;1.46;100.00
4598;BME280;62772;48.646;8.906;2022-12-07T03:38:57;96255.81;;;1.15;100.00
4598;BME280;62772;48.646;8.906;2022-12-07T03:44:01;96260.06;;;0.62;100.00
4598;BME280;62772;48.646;8.906;2022-12-07T03:49:08;96257.34;;;0.79;100.00
4598;BME280;62772;48.646;8.906;2022-12-07T03:54:15;96258.66;;;0.54;100.00
4598;BME280;62772;48.646;8.906;2022-12-07T03:59:18;96253.66;;;1.07;100.00
4598;BME280;62772;48.646;8.906;2022-12-07T04:04:23;96255.28;;;1.13;100.00
4598;BME280;62772;48.646;8.906;2022-12-07T04:09:25;96260.00;;;1.43;100.00
4598;BME280;62772;48.646;8.906;2022-12-07T04:14:26;96259.03;;;1.22;100.00
4598;BME280;62772;48.646;8.906;2022-12-07T04:19:31;96243.66;;;1.41;100.00
4598;BME280;62772;48.646;8.906;2022-12-07T04:24:33;96248.53;;;0.95;100.00
4598;BME280;62772;48.646;8.906;2022-12-07T04:29:33;96249.16;;;1.02;100.00
4598;BME280;62772;48.646;8.906;2022-12-07T04:34:37;96248.47;;;1.17;100.00
4598;BME280;62772;48.646;8.906;2022-12-07T04:39:38;96257.63;;;0.55;100.00
4598;BME280;62772;48.646;8.906;2022-12-07T04:44:39;96250.66;;;0.66;100.00
4598;BME280;62772;48.646;8.906;2022-12-07T04:49:42;96250.53;;;0.56;100.00
4598;BME280;62772;48.646;8.906;2022-12-07T04:54:43;96238.16;;;1.11;100.00
4598;BME280;62772;48.646;8.906;2022-12-07T04:59:44;96244.28;;;0.62;100.00
4598;BME280;62772;48.646;8.906;2022-12-07T05:04:47;96224.63;;;0.97;100.00
4598;BME280;62772;48.646;8.906;2022-12-07T05:09:48;96220.69;;;0.67;100.00
4598;BME280;62772;48.646;8.906;2022-12-07T05:14:48;96207.53;;;1.32;100.00
4598;BME280;62772;48.646;8.906;2022-12-07T05:19:52;96203.91;;;1.00;100.00
4598;BME280;62772;48.646;8.906;2022-12-07T05:24:52;96208.13;;;0.74;100.00
4598;BME280;62772;48.646;8.906;2022-12-07T05:29:53;96218.75;;;0.84;100.00
4598;BME280;62772;48.646;8.906;2022-12-07T05:34:57;96214.81;;;0.87;100.00
4598;BME280;62772;48.646;8.906;2022-12-07T05:39:57;96228.31;;;1.28;100.00
4598;BME280;62772;48.646;8.906;2022-12-07T05:44:58;96225.59;;;-0.13;100.00
4598;BME280;62772;48.646;8.906;2022-12-07T05:50:03;96224.19;;;0.01;100.00
4598;BME280;62772;48.646;8.906;2022-12-07T05:55:06;96228.00;;;-0.29;100.00
4598;BME280;62772;48.646;8.906;2022-12-07T06:00:08;96230.72;;;-0.97;100.00
4598;BME280;62772;48.646;8.906;2022-12-07T06:05:15;96237.41;;;-1.18;100.00
4598;BME280;62772;48.646;8.906;2022-12-07T06:10:16;96240.31;;;-1.19;100.00
4598;BME280;62772;48.646;8.906;2022-12-07T06:15:17;96249.44;;;-1.05;100.00
4598;BME280;62772;48.646;8.906;2022-12-07T06:20:20;96241.75;;;-0.95;100.00
4598;BME280;62772;48.646;8.906;2022-12-07T06:25:21;96245.41;;;-0.62;100.00
4598;BME280;62772;48.646;8.906;2022-12-07T06:30:22;96243.13;;;-0.36;100.00
4598;BME280;62772;48.646;8.906;2022-12-07T06:35:25;96245.63;;;-0.07;100.00
4598;BME280;62772;48.646;8.906;2022-12-07T06:40:26;96247.69;;;-0.48;100.00
4598;BME280;62772;48.646;8.906;2022-12-07T06:45:26;96258.16;;;-0.31;100.00
4598;BME280;62772;48.646;8.906;2022-12-07T06:50:30;96264.78;;;-0.46;100.00
4598;BME280;62772;48.646;8.906;2022-12-07T06:55:30;96264.53;;;-0.61;100.00
4598;BME280;62772;48.646;8.906;2022-12-07T07:00:31;96267.56;;;-0.69;100.00
4598;BME280;62772;48.646;8.906;2022-12-07T07:05:35;96262.84;;;-0.33;100.00
4598;BME280;62772;48.646;8.906;2022-12-07T07:10:36;96259.81;;;-0.25;100.00
4598;BME280;62772;48.646;8.906;2022-12-07T07:15:37;96260.16;;;0.23;100.00
4598;BME280;62772;48.646;8.906;2022-12-07T07:20:41;96258.88;;;0.25;100.00
4598;BME280;62772;48.646;8.906;2022-12-07T07:25:42;96249.06;;;0.43;100.00
4598;BME280;62772;48.646;8.906;2022-12-07T07:30:42;96258.25;;;0.40;100.00
4598;BME280;62772;48.646;8.906;2022-12-07T07:35:46;96269.59;;;0.46;100.00
4598;BME280;62772;48.646;8.906;2022-12-07T07:40:46;96267.66;;;0.36;100.00
4598;BME280;62772;48.646;8.906;2022-12-07T07:45:47;96265.75;;;0.53;100.00
4598;BME280;62772;48.646;8.906;2022-12-07T07:50:50;96264.13;;;-0.19;100.00
4598;BME280;62772;48.646;8.906;2022-12-07T07:55:51;96277.00;;;0.27;100.00
4598;BME280;62772;48.646;8.906;2022-12-07T08:00:53;96276.84;;;0.33;100.00
4598;BME280;62772;48.646;8.906;2022-12-07T08:05:57;96267.81;;;0.24;100.00
4598;BME280;62772;48.646;8.906;2022-12-07T08:10:58;96280.84;;;0.19;100.00
4598;BME280;62772;48.646;8.906;2022-12-07T08:16:03;96273.06;;;0.24;100.00
4598;BME280;62772;48.646;8.906;2022-12-07T08:21:10;96274.25;;;-0.06;100.00
4598;BME280;62772;48.646;8.906;2022-12-07T08:26:13;96283.66;;;0.12;100.00
4598;BME280;62772;48.646;8.906;2022-12-07T08:31:17;96282.84;;;0.29;100.00
4598;BME280;62772;48.646;8.906;2022-12-07T08:36:21;96282.00;;;0.50;100.00
4598;BME280;62772;48.646;8.906;2022-12-07T08:41:24;96283.06;;;0.49;100.00
4598;BME280;62772;48.646;8.906;2022-12-07T08:46:27;96289.34;;;0.70;100.00
4598;BME280;62772;48.646;8.906;2022-12-07T08:51:36;96289.81;;;0.67;100.00
4598;BME280;62772;48.646;8.906;2022-12-07T08:56:37;96299.47;;;0.62;100.00
4598;BME280;62772;48.646;8.906;2022-12-07T09:01:39;96294.84;;;0.25;100.00
4598;BME280;62772;48.646;8.906;2022-12-07T09:06:42;96290.28;;;0.37;100.00
4598;BME280;62772;48.646;8.906;2022-12-07T09:11:43;96279.59;;;0.71;100.00
4598;BME280;62772;48.646;8.906;2022-12-07T09:16:45;96299.69;;;0.82;100.00
4598;BME280;62772;48.646;8.906;2022-12-07T09:21:49;96297.75;;;0.72;100.00
4598;BME280;62772;48.646;8.906;2022-12-07T09:26:50;96297.03;;;1.04;100.00
4598;BME280;62772;48.646;8.906;2022-12-07T09:31:50;96300.06;;;0.91;100.00
4598;BME280;62772;48.646;8.906;2022-12-07T09:36:54;96291.88;;;1.15;100.00
4598;BME280;62772;48.646;8.906;2022-12-07T09:41:56;96293.22;;;0.90;100.00
4598;BME280;62772;48.646;8.906;2022-12-07T09:46:58;96285.06;;;0.92;100.00
4598;BME280;62772;48.646;8.906;2022-12-07T09:52:17;96275.19;;;1.04;100.00
4598;BME280;62772;48.646;8.906;2022-12-07T09:57:28;96270.47;;;1.06;100.00
4598;BME280;62772;48.646;8.906;2022-12-07T10:02:35;96266.50;;;1.36;100.00
4598;BME280;62772;48.646;8.906;2022-12-07T10:07:42;96269.13;;;1.31;100.00
4598;BME280;62772;48.646;8.906;2022-12-07T10:12:58;96265.50;;;1.42;100.00
4598;BME280;62772;48.646;8.906;2022-12-07T10:17:59;96258.25;;;1.22;100.00
4598;BME280;62772;48.646;8.906;2022-12-07T10:23:05;96260.31;;;1.52;100.00
4598;BME280;62772;48.646;8.906;2022-12-07T10:28:16;96242.00;;;1.73;100.00
4598;BME280;62772;48.646;8.906;2022-12-07T10:33:32;96246.72;;;1.66;100.00
4598;BME280;62772;48.646;8.906;2022-12-07T10:38:44;96247.81;;;1.75;100.00
4598;BME280;62772;48.646;8.906;2022-12-07T10:43:51;96243.16;;;1.92;100.00
4598;BME280;62772;48.646;8.906;2022-12-07T10:48:59;96238.75;;;2.03;100.00
4598;BME280;62772;48.646;8.906;2022-12-07T10:54:10;96236.34;;;1.91;100.00
4598;BME280;62772;48.646;8.906;2022-12-07T11:04:57;96216.69;;;1.61;100.00
4598;BME280;62772;48.646;8.906;2022-12-07T11:10:08;96217.78;;;1.71;100.00
4598;BME280;62772;48.646;8.906;2022-12-07T11:15:17;96217.25;;;1.69;100.00
4598;BME280;62772;48.646;8.906;2022-12-07T11:20:29;96210.44;;;1.78;100.00
4598;BME280;62772;48.646;8.906;2022-12-07T11:25:39;96201.09;;;2.03;100.00
4598;BME280;62772;48.646;8.906;2022-12-07T11:30:52;96200.06;;;2.19;100.00
4598;BME280;62772;48.646;8.906;2022-12-07T11:36:06;96193.00;;;2.30;100.00
4598;BME280;62772;48.646;8.906;2022-12-07T11:41:18;96188.16;;;2.01;100.00
4598;BME280;62772;48.646;8.906;2022-12-07T11:46:24;96180.28;;;2.06;100.00
4598;BME280;62772;48.646;8.906;2022-12-07T11:51:28;96172.38;;;2.01;100.00
4598;BME280;62772;48.646;8.906;2022-12-07T11:56:35;96162.97;;;2.31;100.00
4598;BME280;62772;48.646;8.906;2022-12-07T12:01:52;96172.44;;;2.22;100.00
4598;BME280;62772;48.646;8.906;2022-12-07T12:06:54;96163.28;;;2.50;100.00
4598;BME280;62772;48.646;8.906;2022-12-07T12:12:16;96161.09;;;2.21;100.00
4598;BME280;62772;48.646;8.906;2022-12-07T12:17:32;96153.00;;;2.59;100.00
4598;BME280;62772;48.646;8.906;2022-12-07T12:22:40;96155.06;;;2.31;100.00
4598;BME280;62772;48.646;8.906;2022-12-07T12:27:45;96155.03;;;2.26;100.00
4598;BME280;62772;48.646;8.906;2022-12-07T12:32:48;96151.66;;;2.41;100.00
4598;BME280;62772;48.646;8.906;2022-12-07T12:37:49;96140.81;;;2.27;100.00
4598;BME280;62772;48.646;8.906;2022-12-07T12:42:56;96131.63;;;2.34;100.00
4598;BME280;62772;48.646;8.906;2022-12-07T12:47:58;96140.56;;;2.23;100.00
4598;BME280;62772;48.646;8.906;2022-12-07T12:53:05;96136.63;;;2.36;100.00
4598;BME280;62772;48.646;8.906;2022-12-07T12:58:32;96129.75;;;2.30;100.00
4598;BME280;62772;48.646;8.906;2022-12-07T13:03:34;96133.47;;;2.34;100.00
4598;BME280;62772;48.646;8.906;2022-12-07T13:08:40;96125.81;;;2.32;100.00
4598;BME280;62772;48.646;8.906;2022-12-07T13:13:43;96121.59;;;2.26;100.00
4598;BME280;62772;48.646;8.906;2022-12-07T13:18:44;96107.91;;;2.29;100.00
4598;BME280;62772;48.646;8.906;2022-12-07T13:23:54;96107.06;;;2.24;100.00
4598;BME280;62772;48.646;8.906;2022-12-07T13:29:09;96107.88;;;2.24;100.00
4598;BME280;62772;48.646;8.906;2022-12-07T13:34:31;96103.94;;;2.32;100.00
4598;BME280;62772;48.646;8.906;2022-12-07T13:39:33;96104.44;;;2.24;100.00
4598;BME280;62772;48.646;8.906;2022-12-07T13:44:40;96097.59;;;2.17;100.00
4598;BME280;62772;48.646;8.906;2022-12-07T13:49:47;96098.66;;;2.22;100.00
4598;BME280;62772;48.646;8.906;2022-12-07T13:54:55;96099.69;;;2.21;100.00
4598;BME280;62772;48.646;8.906;2022-12-07T13:59:59;96095.25;;;2.26;100.00
4598;BME280;62772;48.646;8.906;2022-12-07T14:05:09;96091.56;;;2.43;100.00
4598;BME280;62772;48.646;8.906;2022-12-07T14:10:23;96094.16;;;2.22;100.00
4598;BME280;62772;48.646;8.906;2022-12-07T14:15:29;96100.75;;;2.20;100.00
4598;BME280;62772;48.646;8.906;2022-12-07T14:20:33;96092.63;;;2.57;100.00
4598;BME280;62772;48.646;8.906;2022-12-07T14:25:44;96083.59;;;1.96;100.00
4598;BME280;62772;48.646;8.906;2022-12-07T14:30:48;96089.38;;;1.93;100.00
4598;BME280;62772;48.646;8.906;2022-12-07T14:35:49;96095.97;;;2.01;100.00
4598;BME280;62772;48.646;8.906;2022-12-07T14:40:50;96093.00;;;1.77;100.00
4598;BME280;62772;48.646;8.906;2022-12-07T14:45:55;96101.13;;;1.70;100.00
4598;BME280;62772;48.646;8.906;2022-12-07T14:50:56;96103.00;;;1.75;100.00
4598;BME280;62772;48.646;8.906;2022-12-07T14:55:57;96100.69;;;1.94;100.00
4598;BME280;62772;48.646;8.906;2022-12-07T15:01:00;96094.88;;;1.81;100.00
4598;BME280;62772;48.646;8.906;2022-12-07T15:06:03;96101.44;;;1.84;100.00
4598;BME280;62772;48.646;8.906;2022-12-07T15:11:04;96105.16;;;1.83;100.00
4598;BME280;62772;48.646;8.906;2022-12-07T15:16:11;96091.50;;;2.02;100.00
4598;BME280;62772;48.646;8.906;2022-12-07T15:21:14;96101.28;;;2.22;100.00
4598;BME280;62772;48.646;8.906;2022-12-07T15:26:15;96098.03;;;1.78;100.00
4598;BME280;62772;48.646;8.906;2022-12-07T15:31:19;96095.88;;;1.70;100.00
4598;BME280;62772;48.646;8.906;2022-12-07T15:36:22;96097.56;;;2.07;100.00
4598;BME280;62772;48.646;8.906;2022-12-07T15:41:23;96100.50;;;2.62;100.00
4598;BME280;62772;48.646;8.906;2022-12-07T15:46:31;96104.09;;;1.89;100.00
4598;BME280;62772;48.646;8.906;2022-12-07T15:51:32;96098.41;;;2.44;100.00
4598;BME280;62772;48.646;8.906;2022-12-07T15:56:33;96088.94;;;2.58;100.00
4598;BME280;62772;48.646;8.906;2022-12-07T16:01:37;96094.91;;;1.97;100.00
4598;BME280;62772;48.646;8.906;2022-12-07T16:06:37;96096.88;;;1.54;100.00
4598;BME280;62772;48.646;8.906;2022-12-07T16:11:38;96091.25;;;1.35;100.00
4598;BME280;62772;48.646;8.906;2022-12-07T16:16:42;96089.13;;;1.32;100.00
4598;BME280;62772;48.646;8.906;2022-12-07T16:21:42;96086.56;;;1.42;100.00
4598;BME280;62772;48.646;8.906;2022-12-07T16:26:44;96085.63;;;1.16;100.00
4598;BME280;62772;48.646;8.906;2022-12-07T16:31:48;96077.81;;;1.26;100.00
4598;BME280;62772;48.646;8.906;2022-12-07T16:36:49;96076.72;;;1.22;100.00
4598;BME280;62772;48.646;8.906;2022-12-07T16:41:49;96075.72;;;1.33;100.00
4598;BME280;62772;48.646;8.906;2022-12-07T16:46:53;96065.75;;;1.35;100.00
4598;BME280;62772;48.646;8.906;2022-12-07T16:51:53;96060.09;;;1.11;100.00
4598;BME280;62772;48.646;8.906;2022-12-07T16:56:54;96060.53;;;1.56;100.00
4598;BME280;62772;48.646;8.906;2022-12-07T17:01:58;96059.31;;;1.79;100.00
4598;BME280;62772;48.646;8.906;2022-12-07T17:06:58;96057.31;;;1.38;100.00
4598;BME280;62772;48.646;8.906;2022-12-07T17:11:59;96043.47;;;1.63;100.00
4598;BME280;62772;48.646;8.906;2022-12-07T17:17:02;96043.66;;;1.41;100.00
4598;BME280;62772;48.646;8.906;2022-12-07T17:22:05;96033.81;;;1.90;100.00
4598;BME280;62772;48.646;8.906;2022-12-07T17:27:06;96032.53;;;1.24;100.00
4598;BME280;62772;48.646;8.906;2022-12-07T17:32:09;96037.78;;;1.24;100.00
4598;BME280;62772;48.646;8.906;2022-12-07T17:37:10;96035.28;;;0.97;100.00
4598;BME280;62772;48.646;8.906;2022-12-07T17:42:11;96030.53;;;0.94;100.00
4598;BME280;62772;48.646;8.906;2022-12-07T17:47:33;96027.97;;;0.99;100.00
4598;BME280;62772;48.646;8.906;2022-12-07T17:52:36;96029.63;;;0.72;100.00
4598;BME280;62772;48.646;8.906;2022-12-07T17:57:56;96036.22;;;1.18;100.00
4598;BME280;62772;48.646;8.906;2022-12-07T18:02:59;96029.47;;;0.89;100.00
4598;BME280;62772;48.646;8.906;2022-12-07T18:08:00;96028.72;;;0.51;100.00
4598;BME280;62772;48.646;8.906;2022-12-07T18:13:01;96023.13;;;0.43;100.00
4598;BME280;62772;48.646;8.906;2022-12-07T18:18:23;96023.66;;;0.07;100.00
4598;BME280;62772;48.646;8.906;2022-12-07T18:23:24;96023.34;;;0.04;100.00
4598;BME280;62772;48.646;8.906;2022-12-07T18:28:25;96023.09;;;0.75;100.00
4598;BME280;62772;48.646;8.906;2022-12-07T18:33:29;96024.31;;;0.25;100.00
4598;BME280;62772;48.646;8.906;2022-12-07T18:38:30;96012.69;;;0.15;100.00
4598;BME280;62772;48.646;8.906;2022-12-07T18:43:31;96022.06;;;-0.21;100.00
4598;BME280;62772;48.646;8.906;2022-12-07T18:48:34;96020.34;;;-0.38;100.00
4598;BME280;62772;48.646;8.906;2022-12-07T18:53:36;96028.41;;;-0.17;100.00
4598;BME280;62772;48.646;8.906;2022-12-07T18:58:37;96016.53;;;-0.52;100.00
4598;BME280;62772;48.646;8.906;2022-12-07T19:03:40;96025.34;;;-0.09;100.00
4598;BME280;62772;48.646;8.906;2022-12-07T19:08:41;96023.59;;;-0.52;100.00
4598;BME280;62772;48.646;8.906;2022-12-07T19:13:41;96019.16;;;-0.25;100.00
4598;BME280;62772;48.646;8.906;2022-12-07T19:18:45;96012.19;;;0.51;100.00
4598;BME280;62772;48.646;8.906;2022-12-07T19:23:46;96013.53;;;0.21;100.00
4598;BME280;62772;48.646;8.906;2022-12-07T19:28:46;96015.50;;;0.41;100.00
4598;BME280;62772;48.646;8.906;2022-12-07T19:33:50;96012.28;;;0.02;100.00
4598;BME280;62772;48.646;8.906;2022-12-07T19:38:51;96015.34;;;-0.12;100.00
4598;BME280;62772;48.646;8.906;2022-12-07T19:43:51;96010.50;;;-0.25;100.00
4598;BME280;62772;48.646;8.906;2022-12-07T19:48:55;96012.19;;;-0.41;100.00
4598;BME280;62772;48.646;8.906;2022-12-07T19:53:57;96005.03;;;-0.46;100.00
4598;BME280;62772;48.646;8.906;2022-12-07T19:58:59;95979.53;;;0.09;100.00
4598;BME280;62772;48.646;8.906;2022-12-07T20:04:04;95982.94;;;0.42;100.00
4598;BME280;62772;48.646;8.906;2022-12-07T20:09:05;95983.91;;;0.74;100.00
4598;BME280;62772;48.646;8.906;2022-12-07T20:14:07;95977.53;;;0.22;100.00
4598;BME280;62772;48.646;8.906;2022-12-07T20:19:11;95970.94;;;0.57;100.00
4598;BME280;62772;48.646;8.906;2022-12-07T20:24:15;95966.72;;;0.56;100.00
4598;BME280;62772;48.646;8.906;2022-12-07T20:29:19;95965.84;;;0.02;100.00
4598;BME280;62772;48.646;8.906;2022-12-07T20:34:22;95963.53;;;0.48;100.00
4598;BME280;62772;48.646;8.906;2022-12-07T20:39:25;95949.38;;;0.54;100.00
4598;BME280;62772;48.646;8.906;2022-12-07T20:44:26;95951.19;;;0.49;100.00
4598;BME280;62772;48.646;8.906;2022-12-07T20:49:30;95951.09;;;-0.04;100.00
4598;BME280;62772;48.646;8.906;2022-12-07T20:54:30;95944.50;;;0.31;100.00
4598;BME280;62772;48.646;8.906;2022-12-07T20:59:31;95948.78;;;-0.28;100.00
4598;BME280;62772;48.646;8.906;2022-12-07T21:04:36;95948.47;;;-0.37;100.00
4598;BME280;62772;48.646;8.906;2022-12-07T21:09:37;95942.81;;;-0.50;100.00
4598;BME280;62772;48.646;8.906;2022-12-07T21:14:38;95934.41;;;-0.52;100.00
4598;BME280;62772;48.646;8.906;2022-12-07T21:19:42;95935.28;;;-0.69;100.00
4598;BME280;62772;48.646;8.906;2022-12-07T21:24:43;95927.63;;;-0.48;100.00
4598;BME280;62772;48.646;8.906;2022-12-07T21:29:44;95924.97;;;-0.21;100.00
4598;BME280;62772;48.646;8.906;2022-12-07T21:34:47;95921.69;;;-0.33;100.00
4598;BME280;62772;48.646;8.906;2022-12-07T21:39:48;95911.22;;;-0.01;100.00
4598;BME280;62772;48.646;8.906;2022-12-07T21:44:49;95909.00;;;0.23;100.00
4598;BME280;62772;48.646;8.906;2022-12-07T21:49:52;95910.34;;;0.26;100.00
4598;BME280;62772;48.646;8.906;2022-12-07T21:54:53;95910.47;;;0.09;100.00
4598;BME280;62772;48.646;8.906;2022-12-07T21:59:54;95913.88;;;0.04;100.00
4598;BME280;62772;48.646;8.906;2022-12-07T22:04:57;95917.13;;;-0.48;100.00
4598;BME280;62772;48.646;8.906;2022-12-07T22:09:58;95911.59;;;-0.52;100.00
4598;BME280;62772;48.646;8.906;2022-12-07T22:14:59;95916.84;;;-0.79;100.00
4598;BME280;62772;48.646;8.906;2022-12-07T22:20:09;95911.59;;;-0.79;100.00
4598;BME280;62772;48.646;8.906;2022-12-07T22:25:10;95909.63;;;-0.34;100.00
4598;BME280;62772;48.646;8.906;2022-12-07T22:30:12;95889.28;;;-0.22;100.00
4598;BME280;62772;48.646;8.906;2022-12-07T22:35:15;95900.25;;;-0.58;100.00
4598;BME280;62772;48.646;8.906;2022-12-07T22:40:17;95898.75;;;-1.03;100.00
4598;BME280;62772;48.646;8.906;2022-12-07T22:45:18;95900.19;;;-0.35;100.00
4598;BME280;62772;48.646;8.906;2022-12-07T22:50:22;95893.81;;;-0.72;100.00
4598;BME280;62772;48.646;8.906;2022-12-07T22:55:23;95896.44;;;-0.99;100.00
4598;BME280;62772;48.646;8.906;2022-12-07T23:00:23;95888.50;;;-0.82;100.00
4598;BME280;62772;48.646;8.906;2022-12-07T23:05:27;95885.81;;;-0.60;100.00
4598;BME280;62772;48.646;8.906;2022-12-07T23:10:28;95883.84;;;-1.47;100.00
4598;BME280;62772;48.646;8.906;2022-12-07T23:15:32;95877.00;;;-0.76;100.00
4598;BME280;62772;48.646;8.906;2022-12-07T23:20:35;95876.91;;;-0.27;100.00
4598;BME280;62772;48.646;8.906;2022-12-07T23:25:36;95866.75;;;-0.50;100.00
4598;BME280;62772;48.646;8.906;2022-12-07T23:30:37;95871.78;;;-1.25;100.00
4598;BME280;62772;48.646;8.906;2022-12-07T23:35:40;95874.50;;;-1.59;100.00
4598;BME280;62772;48.646;8.906;2022-12-07T23:40:41;95865.88;;;-1.99;100.00
4598;BME280;62772;48.646;8.906;2022-12-07T23:45:44;95854.00;;;-1.23;100.00
4598;BME280;62772;48.646;8.906;2022-12-07T23:50:48;95841.28;;;-1.81;100.00
4598;BME280;62772;48.646;8.906;2022-12-07T23:55:48;95844.22;;;-1.94;100.00
